Huvudsida
METAR-TAF:

METAR-TAF

Flygplatser :

Mosjøens flygplats. Kjærstad

Mosjøen, Norge

latitud: 65-48N, longitud: 013-08E, höjd: 70 m

Aktuellt väderrapport

Denna rapport gjordes för 13 minuter sedan, klockan 06:20 UTC
Vind 3 kt från sydväst, varierande mellan syd och väst
Temperatur 9°C
Fuktighet 87%
Tryck 1004 hPa
Sikt 10 km eller mer
Få moln på en höjd av 400 ft
Spridda moln på en höjd av 2500 ft
Brutna moln på en höjd av 4300 ft

METAR: ENMS 210620Z 23003KT 190V280 9999 FEW004 SCT025 BKN043 09/07 Q1004 RMK WIND 412FT VRB02KT

Tid: 08:33 (06:33 UTC)


TAF: saknas

Aktuella väderrapporter och prognoser från 4000 flygplatser (METAR- och TAF-rapporter).

De tillgängliga stationerna syns som gula och röda prickar på kartan.

För musen över prickarna för att se namnen på stationerna.

Klicka sedan för att få väderrapporter och prognoser.

För att ändra kartan: Klicka på de gröna knapparna med ett svart kors på för att zooma in; den gröna knappen med ett streck på för att zooma ut; eller på de gröna pilarna för angränsande kartor.


METAR-TAF: